Time;durP1;ratioP1;P1;durP2;ratioP2;P2;SDS_P1;SDS_P2;PMS_P1;PMS_P2;Temp;Humidity;BMP_temperature;BMP_pressure;BME280_temperature;BME280_humidity;BME280_pressure;Samples;Min_cycle;Max_cycle;Signal;HPM_P1;HPM_P2
2022/04/30 00:00:51;;;;;;;17.73;8.93;;;6.30;99.90;;;;;;4980945;28;20057;-78
2022/04/30 00:03:17;;;;;;;15.63;8.32;;;6.30;99.90;;;;;;5000582;28;20058;-78
2022/04/30 00:05:42;;;;;;;16.00;8.57;;;6.40;99.90;;;;;;4971371;28;20038;-78
2022/04/30 00:08:08;;;;;;;13.15;8.15;;;6.30;99.90;;;;;;4970420;28;20125;-77
2022/04/30 00:10:38;;;;;;;15.95;8.52;;;6.30;99.90;;;;;;4986500;28;20183;-77
2022/04/30 00:13:08;;;;;;;17.95;8.40;;;6.60;99.90;;;;;;4984928;28;20104;-78
2022/04/30 00:15:34;;;;;;;16.02;8.05;;;6.20;99.90;;;;;;4983265;28;20034;-78
2022/04/30 00:18:01;;;;;;;16.40;8.23;;;6.20;99.90;;;;;;4971810;28;20057;-78
2022/04/30 00:20:27;;;;;;;14.38;7.72;;;6.20;99.90;;;;;;4985103;28;20034;-78
2022/04/30 00:22:52;;;;;;;11.50;7.10;;;6.20;99.90;;;;;;5003245;28;20121;-78
2022/04/30 00:25:18;;;;;;;16.77;7.63;;;6.20;99.90;;;;;;4982950;28;20144;-79
2022/04/30 00:27:44;;;;;;;10.98;6.40;;;6.20;99.90;;;;;;4985806;28;20042;-78
2022/04/30 00:30:11;;;;;;;17.73;7.75;;;6.20;99.90;;;;;;4974135;28;20041;-78
2022/04/30 00:32:37;;;;;;;13.68;6.93;;;6.20;99.90;;;;;;4986197;28;20078;-78
2022/04/30 00:35:03;;;;;;;15.82;7.30;;;6.20;99.90;;;;;;4968820;28;20042;-78
2022/04/30 00:37:29;;;;;;;16.95;6.78;;;6.20;99.90;;;;;;4968754;28;20148;-78
2022/04/30 00:39:54;;;;;;;14.80;6.88;;;6.20;99.90;;;;;;4982052;28;20548;-78
2022/04/30 00:42:20;;;;;;;16.17;6.60;;;6.20;99.90;;;;;;4980396;28;20125;-78
2022/04/30 00:44:47;;;;;;;10.73;6.60;;;6.20;99.90;;;;;;4992047;28;20038;-79
2022/04/30 00:47:19;;;;;;;15.68;6.60;;;6.20;99.90;;;;;;4978564;28;20045;-78
2022/04/30 00:49:46;;;;;;;13.27;6.85;;;6.50;99.90;;;;;;4984489;28;20450;-78
2022/04/30 00:52:15;;;;;;;11.90;6.07;;;6.20;99.90;;;;;;4985793;28;20066;-78
2022/04/30 00:54:42;;;;;;;13.75;6.03;;;6.20;99.90;;;;;;4986254;28;20042;-78
2022/04/30 00:57:13;;;;;;;17.98;6.80;;;6.40;99.90;;;;;;4967899;28;20049;-78
2022/04/30 00:59:40;;;;;;;10.80;6.40;;;6.30;99.90;;;;;;4984650;28;20042;-79
2022/04/30 01:02:09;;;;;;;14.13;5.82;;;6.20;99.90;;;;;;4966119;28;20470;-78
2022/04/30 01:04:35;;;;;;;13.45;6.07;;;6.30;99.90;;;;;;4956973;28;20052;-78
2022/04/30 01:07:08;;;;;;;14.55;6.50;;;6.30;99.90;;;;;;4967654;28;20039;-78
2022/04/30 01:09:42;;;;;;;9.80;6.20;;;6.30;99.90;;;;;;4993401;28;20492;-78
2022/04/30 01:12:13;;;;;;;13.70;6.60;;;6.30;99.90;;;;;;4957397;28;20049;-78
2022/04/30 01:14:40;;;;;;;11.50;6.13;;;6.30;99.90;;;;;;4981279;28;20043;-78
2022/04/30 01:17:08;;;;;;;16.15;6.68;;;6.30;99.90;;;;;;4954520;28;20118;-78
2022/04/30 01:19:37;;;;;;;13.77;6.38;;;6.30;99.90;;;;;;4957519;28;20034;-77
2022/04/30 01:22:24;;;;;;;15.00;6.20;;;6.20;99.90;;;;;;4958026;28;20124;-77
2022/04/30 01:24:56;;;;;;;16.30;5.97;;;6.30;99.90;;;;;;4964572;28;20382;-78
2022/04/30 01:27:25;;;;;;;11.50;5.97;;;6.30;99.90;;;;;;4958471;28;20429;-78
2022/04/30 01:29:52;;;;;;;14.30;6.05;;;6.30;99.90;;;;;;4956044;28;20045;-78
2022/04/30 01:38:15;;;;;;;12.93;5.95;;;6.30;99.90;;;;;;4970749;28;20542;-78
2022/04/30 01:40:41;;;;;;;12.35;5.97;;;6.30;99.90;;;;;;4961497;28;20067;-78
2022/04/30 01:43:08;;;;;;;10.95;6.10;;;6.40;99.90;;;;;;4974654;28;20042;-78
2022/04/30 01:45:34;;;;;;;11.05;6.00;;;6.40;99.90;;;;;;4977494;28;20051;-78
2022/04/30 01:48:02;;;;;;;13.90;6.70;;;6.40;99.90;;;;;;4969371;28;20042;-78
2022/04/30 01:50:28;;;;;;;14.25;6.93;;;6.30;99.90;;;;;;4973976;28;20034;-78
2022/04/30 01:52:54;;;;;;;13.32;6.40;;;6.30;99.90;;;;;;4955460;28;20042;-78
2022/04/30 01:55:19;;;;;;;13.15;6.70;;;6.30;99.90;;;;;;4970979;28;20647;-79
2022/04/30 01:57:46;;;;;;;12.57;6.40;;;6.20;99.90;;;;;;4972413;28;20762;-78
2022/04/30 02:00:20;;;;;;;14.95;7.07;;;6.10;99.90;;;;;;4973260;28;20050;-78
2022/04/30 02:02:49;;;;;;;13.10;6.80;;;6.10;99.90;;;;;;4975943;28;20867;-78
2022/04/30 02:05:15;;;;;;;13.38;6.55;;;6.10;99.90;;;;;;4967153;28;20047;-78
2022/04/30 02:07:49;;;;;;;16.75;6.45;;;6.00;99.90;;;;;;4954739;28;20065;-78
2022/04/30 02:10:18;;;;;;;11.32;6.45;;;6.00;99.90;;;;;;4955644;28;20122;-78
2022/04/30 02:12:44;;;;;;;10.45;6.55;;;6.00;99.90;;;;;;4969186;28;20050;-78
2022/04/30 02:15:13;;;;;;;16.67;6.70;;;6.00;99.90;;;;;;4961326;28;20165;-78
2022/04/30 02:17:40;;;;;;;11.45;5.95;;;6.00;99.90;;;;;;4973907;28;20126;-78
2022/04/30 02:20:27;;;;;;;10.40;6.50;;;6.00;99.90;;;;;;4969753;28;20425;-78
2022/04/30 02:22:59;;;;;;;10.88;6.30;;;5.90;99.90;;;;;;4954597;28;21707;-78
2022/04/30 02:25:26;;;;;;;13.07;6.10;;;5.90;99.90;;;;;;4970569;28;20042;-78
2022/04/30 02:27:58;;;;;;;14.45;6.10;;;5.90;99.90;;;;;;4950542;28;20468;-78
2022/04/30 02:30:26;;;;;;;16.13;6.57;;;5.90;99.90;;;;;;4975307;28;20069;-78
2022/04/30 02:33:03;;;;;;;12.68;6.68;;;5.90;99.90;;;;;;4977716;28;20030;-78
2022/04/30 02:35:31;;;;;;;13.75;6.55;;;5.90;99.90;;;;;;4983217;28;20554;-78
2022/04/30 02:37:59;;;;;;;11.88;6.53;;;5.90;99.90;;;;;;4971873;28;20085;-79
2022/04/30 02:40:26;;;;;;;14.00;5.82;;;5.90;99.90;;;;;;4956997;28;20034;-78
2022/04/30 02:42:53;;;;;;;12.57;6.75;;;5.90;99.90;;;;;;4957221;28;20046;-78
2022/04/30 02:45:20;;;;;;;12.10;6.22;;;6.00;99.90;;;;;;4986020;28;20134;-78
2022/04/30 02:47:53;;;;;;;11.70;6.10;;;5.90;99.90;;;;;;4988503;28;20134;-78
2022/04/30 02:50:22;;;;;;;15.60;6.80;;;5.90;99.90;;;;;;4982426;28;20038;-78
2022/04/30 02:52:48;;;;;;;14.38;7.00;;;5.90;99.90;;;;;;4977698;28;20074;-77
2022/04/30 02:55:14;;;;;;;18.55;7.70;;;5.80;99.90;;;;;;4997039;28;20054;-78
2022/04/30 03:00:40;;;;;;;21.90;7.25;;;5.70;99.90;;;;;;4974295;28;20054;-78
2022/04/30 03:03:10;;;;;;;12.88;6.63;;;5.70;99.90;;;;;;4978382;28;20055;-79
2022/04/30 03:05:39;;;;;;;11.73;6.90;;;5.70;99.90;;;;;;4995460;28;20055;-78
2022/04/30 03:08:15;;;;;;;17.10;6.95;;;5.60;99.90;;;;;;4977926;28;20113;-78
2022/04/30 03:10:44;;;;;;;12.65;6.75;;;5.60;99.90;;;;;;4964048;28;20113;-79
2022/04/30 03:13:11;;;;;;;9.63;6.90;;;5.60;99.90;;;;;;4998679;28;20705;-78
2022/04/30 03:15:41;;;;;;;9.93;6.55;;;5.60;99.90;;;;;;4969320;28;20128;-79
2022/04/30 03:21:42;;;;;;;11.55;6.82;;;5.60;99.90;;;;;;4978846;28;20181;-78
2022/04/30 03:23:43;;;;;;;9.13;6.47;;;5.60;99.90;;;;;;4976383;28;21205;-78
2022/04/30 03:26:10;;;;;;;11.65;6.65;;;5.50;99.90;;;;;;4974414;28;20038;-78
2022/04/30 03:28:37;;;;;;;15.07;7.72;;;5.50;99.90;;;;;;4980214;28;20124;-78
2022/04/30 03:31:07;;;;;;;13.70;7.38;;;5.50;99.90;;;;;;4954421;28;20038;-78
2022/04/30 03:33:33;;;;;;;13.05;7.65;;;5.50;99.90;;;;;;4977984;28;20042;-78
2022/04/30 03:35:59;;;;;;;11.15;7.38;;;5.50;99.90;;;;;;4972302;28;20439;-78
2022/04/30 03:38:25;;;;;;;13.25;7.22;;;5.50;99.90;;;;;;4960160;28;20061;-79
2022/04/30 03:40:51;;;;;;;11.85;6.80;;;5.50;99.90;;;;;;4975091;28;20046;-78
2022/04/30 03:43:18;;;;;;;10.45;6.68;;;5.60;99.90;;;;;;4982555;28;20037;-78
2022/04/30 03:45:44;;;;;;;18.63;7.13;;;5.50;99.90;;;;;;4956248;28;20054;-78
2022/04/30 03:48:12;;;;;;;12.00;6.65;;;5.50;99.90;;;;;;4965291;28;20045;-78
2022/04/30 03:50:37;;;;;;;12.88;7.30;;;5.50;99.90;;;;;;4974536;28;20401;-78
2022/04/30 03:53:03;;;;;;;15.60;7.65;;;5.60;99.90;;;;;;4982765;28;20043;-78
2022/04/30 03:55:29;;;;;;;10.98;6.47;;;5.60;99.90;;;;;;4977647;28;20258;-78
2022/04/30 03:57:55;;;;;;;13.25;6.70;;;5.60;99.90;;;;;;4980236;28;20645;-78
2022/04/30 04:00:21;;;;;;;8.82;6.82;;;5.50;99.90;;;;;;4974701;28;20092;-78
2022/04/30 04:02:47;;;;;;;13.00;6.97;;;5.50;99.90;;;;;;4987279;28;20181;-79
2022/04/30 04:05:13;;;;;;;14.43;7.10;;;5.50;99.90;;;;;;4976646;28;20355;-78
2022/04/30 04:07:41;;;;;;;13.40;7.05;;;5.50;99.90;;;;;;4989881;28;20038;-78
2022/04/30 04:10:09;;;;;;;11.13;7.25;;;5.70;99.90;;;;;;4987042;28;20097;-78
2022/04/30 04:12:43;;;;;;;11.50;7.30;;;5.50;99.90;;;;;;4971525;28;20132;-79
2022/04/30 04:18:02;;;;;;;11.80;7.25;;;5.50;99.90;;;;;;4996964;28;20045;-76
2022/04/30 04:20:27;;;;;;;12.63;7.10;;;5.50;99.90;;;;;;4990174;28;20046;-77
2022/04/30 04:22:54;;;;;;;14.93;7.22;;;5.50;99.90;;;;;;4998695;28;20049;-78
2022/04/30 04:28:05;;;;;;;10.48;7.28;;;5.60;99.90;;;;;;4985610;28;20042;-78
2022/04/30 04:30:31;;;;;;;13.25;7.40;;;5.60;99.90;;;;;;4969734;28;20113;-78
2022/04/30 04:32:58;;;;;;;10.10;7.28;;;5.70;99.90;;;;;;4994926;28;20045;-79
2022/04/30 04:35:25;;;;;;;10.48;7.95;;;5.80;99.90;;;;;;4968654;28;20044;-79
2022/04/30 04:37:51;;;;;;;13.43;7.35;;;5.80;99.90;;;;;;4970304;28;21873;-78
2022/04/30 04:40:17;;;;;;;10.23;7.45;;;5.80;99.90;;;;;;4986776;28;20041;-78
2022/04/30 04:42:44;;;;;;;14.93;7.70;;;5.90;99.90;;;;;;4969831;28;20049;-78
2022/04/30 04:45:10;;;;;;;14.32;7.55;;;5.90;99.90;;;;;;4987207;28;20042;-78
2022/04/30 04:47:41;;;;;;;11.23;7.18;;;6.00;99.90;;;;;;4987300;28;20053;-79
2022/04/30 04:50:13;;;;;;;13.45;7.50;;;6.10;99.90;;;;;;4985969;28;20057;-78
2022/04/30 04:52:40;;;;;;;13.80;6.97;;;6.10;99.90;;;;;;4984255;28;20060;-78
2022/04/30 04:55:06;;;;;;;14.43;7.43;;;6.10;99.90;;;;;;4971439;28;20069;-78
2022/04/30 04:57:31;;;;;;;12.48;7.38;;;6.10;99.90;;;;;;4988115;28;20072;-78
2022/04/30 04:59:57;;;;;;;12.45;7.20;;;6.10;99.90;;;;;;4971542;28;20092;-79
2022/04/30 05:02:23;;;;;;;15.40;7.28;;;6.20;99.90;;;;;;4984936;28;20448;-81
2022/04/30 05:04:49;;;;;;;5.57;4.55;;;6.20;99.90;;;;;;5003498;28;20126;-78
2022/04/30 05:07:15;;;;;;;15.60;7.68;;;6.30;99.90;;;;;;4979678;28;20054;-80
2022/04/30 05:09:41;;;;;;;9.65;6.93;;;6.40;99.90;;;;;;4967500;28;20168;-80
2022/04/30 05:12:07;;;;;;;12.95;7.15;;;6.40;99.90;;;;;;4969982;28;20042;-81
2022/04/30 05:14:34;;;;;;;14.63;7.35;;;6.50;99.90;;;;;;4970725;28;20041;-79
2022/04/30 05:17:05;;;;;;;9.48;7.22;;;6.50;99.90;;;;;;4968308;28;20520;-80
2022/04/30 05:19:32;;;;;;;14.60;7.10;;;6.50;99.90;;;;;;4983488;28;20061;-79
2022/04/30 05:21:57;;;;;;;8.93;6.93;;;6.60;99.90;;;;;;4967836;28;20061;-79
2022/04/30 05:24:23;;;;;;;22.80;8.23;;;6.80;99.90;;;;;;4978835;28;20037;-80
2022/04/30 05:26:49;;;;;;;10.68;6.95;;;6.70;99.90;;;;;;4979088;28;20125;-79
2022/04/30 05:29:15;;;;;;;17.48;7.57;;;6.80;99.90;;;;;;4966145;28;20042;-79
2022/04/30 05:31:41;;;;;;;12.77;7.40;;;6.90;99.90;;;;;;4965908;28;20524;-79
2022/04/30 05:34:06;;;;;;;13.00;7.22;;;7.00;99.90;;;;;;4984132;28;20046;-79
2022/04/30 05:36:32;;;;;;;11.43;7.70;;;7.10;99.90;;;;;;4971393;28;20501;-79
2022/04/30 05:38:59;;;;;;;15.98;7.53;;;7.30;99.90;;;;;;4969008;28;20163;-80
2022/04/30 05:41:25;;;;;;;13.93;7.40;;;7.30;99.90;;;;;;4970564;28;20074;-80
2022/04/30 05:43:51;;;;;;;15.02;7.55;;;7.50;99.90;;;;;;4970792;28;20046;-79
2022/04/30 05:46:17;;;;;;;12.02;7.18;;;7.70;99.90;;;;;;4987065;28;20050;-79
2022/04/30 05:48:43;;;;;;;11.90;7.05;;;7.60;99.90;;;;;;5010303;28;20077;-78
2022/04/30 05:51:09;;;;;;;11.30;6.90;;;7.70;99.90;;;;;;4981421;28;20065;-80
2022/04/30 05:53:35;;;;;;;15.55;6.88;;;7.70;99.90;;;;;;4982817;28;20030;-80
2022/04/30 05:56:01;;;;;;;11.38;7.18;;;7.80;99.90;;;;;;5003761;28;20038;-81
2022/04/30 05:58:26;;;;;;;14.70;7.43;;;7.90;99.90;;;;;;4998476;28;20030;-81
2022/04/30 06:00:52;;;;;;;19.73;6.75;;;8.00;99.90;;;;;;4975620;28;20104;-81
2022/04/30 06:03:18;;;;;;;12.98;6.90;;;8.30;99.90;;;;;;4998533;28;20145;-80
2022/04/30 06:05:43;;;;;;;10.23;6.82;;;8.80;99.90;;;;;;4968638;28;20041;-78
2022/04/30 06:08:09;;;;;;;14.23;6.93;;;8.30;99.90;;;;;;4989332;28;20034;-80
2022/04/30 06:10:35;;;;;;;14.82;7.07;;;8.40;99.90;;;;;;4990347;28;20033;-80
2022/04/30 06:13:01;;;;;;;11.50;6.78;;;8.60;99.90;;;;;;4974899;28;20045;-80
2022/04/30 06:15:28;;;;;;;9.77;6.18;;;8.90;99.90;;;;;;4971302;28;20049;-80
2022/04/30 06:17:54;;;;;;;10.45;6.45;;;8.70;99.90;;;;;;4973749;28;20054;-81
2022/04/30 06:20:20;;;;;;;11.88;6.60;;;8.90;99.90;;;;;;4987238;28;20129;-80
2022/04/30 06:22:46;;;;;;;12.68;6.32;;;9.00;99.90;;;;;;4973560;28;20125;-82
2022/04/30 06:25:11;;;;;;;13.80;6.07;;;9.70;99.90;;;;;;4976395;28;20464;-79
2022/04/30 06:27:38;;;;;;;17.17;6.35;;;9.40;99.90;;;;;;4975753;28;20047;-81
2022/04/30 06:30:05;;;;;;;15.32;6.07;;;9.40;99.90;;;;;;4972472;28;20069;-80
2022/04/30 06:32:30;;;;;;;8.52;5.53;;;9.40;99.90;;;;;;4975608;28;20080;-80
2022/04/30 06:35:00;;;;;;;10.05;5.95;;;9.40;99.90;;;;;;4973160;28;20066;-82
2022/04/30 06:37:25;;;;;;;15.25;6.38;;;9.40;99.90;;;;;;4968673;28;20074;-82
2022/04/30 06:39:51;;;;;;;13.07;5.68;;;9.40;99.90;;;;;;4986350;28;20446;-82
2022/04/30 06:42:17;;;;;;;11.35;5.60;;;9.40;99.90;;;;;;4982952;28;20101;-80
2022/04/30 06:44:43;;;;;;;11.00;6.03;;;9.50;99.90;;;;;;4974657;28;20477;-82
2022/04/30 06:47:09;;;;;;;12.18;5.45;;;9.30;99.90;;;;;;4970481;28;20476;-82
2022/04/30 06:49:35;;;;;;;14.02;6.25;;;9.40;99.90;;;;;;5001122;28;20044;-81
2022/04/30 06:52:02;;;;;;;14.55;5.90;;;9.50;99.90;;;;;;4986493;28;20161;-81
2022/04/30 06:57:12;;;;;;;11.98;6.57;;;9.30;99.90;;;;;;4986379;28;20053;-81
2022/04/30 06:59:41;;;;;;;12.70;6.30;;;9.30;99.90;;;;;;4971453;28;20050;-82
2022/04/30 07:02:19;;;;;;;10.18;6.18;;;9.40;99.90;;;;;;4982581;28;20053;-79
2022/04/30 07:04:49;;;;;;;13.65;6.72;;;9.20;99.90;;;;;;4988898;28;20065;-79
2022/04/30 07:07:17;;;;;;;13.65;6.25;;;9.20;99.90;;;;;;4971170;28;20092;-80
2022/04/30 07:09:45;;;;;;;11.25;6.68;;;9.20;99.90;;;;;;4972495;28;20056;-79
2022/04/30 07:12:13;;;;;;;14.50;6.85;;;9.20;99.90;;;;;;4968350;28;20088;-80
2022/04/30 07:14:40;;;;;;;13.95;7.10;;;9.20;99.90;;;;;;4995329;28;20125;-80
2022/04/30 07:17:13;;;;;;;14.27;6.20;;;9.20;99.90;;;;;;4975729;28;20053;-77
2022/04/30 07:19:41;;;;;;;15.52;6.70;;;9.70;99.90;;;;;;5004159;28;20037;-82
2022/04/30 07:22:07;;;;;;;12.90;6.65;;;9.40;99.90;;;;;;5003669;28;20149;-80
2022/04/30 07:24:33;;;;;;;12.20;6.80;;;9.60;99.90;;;;;;4973677;28;20038;-80
2022/04/30 07:27:00;;;;;;;15.55;6.97;;;9.50;99.90;;;;;;5001727;28;20038;-81
2022/04/30 07:29:27;;;;;;;10.80;6.93;;;9.50;99.90;;;;;;4973665;28;20038;-86
2022/04/30 07:31:54;;;;;;;11.63;6.68;;;9.60;99.90;;;;;;4965026;28;20046;-80
2022/04/30 07:34:19;;;;;;;13.52;5.57;;;9.70;99.90;;;;;;4968316;28;20048;-80
2022/04/30 07:36:45;;;;;;;23.02;6.70;;;9.90;99.90;;;;;;4974299;28;20041;-81
2022/04/30 07:39:11;;;;;;;18.63;7.10;;;10.00;99.90;;;;;;4971570;28;20184;-79
2022/04/30 07:41:37;;;;;;;16.80;6.88;;;10.10;99.90;;;;;;4986895;28;20038;-80
2022/04/30 07:44:03;;;;;;;13.63;6.30;;;10.30;99.90;;;;;;4994368;28;20050;-80
2022/04/30 07:46:31;;;;;;;17.40;6.97;;;10.40;99.90;;;;;;4978829;28;20053;-82
2022/04/30 07:48:58;;;;;;;16.40;6.68;;;10.40;99.90;;;;;;4987729;28;20039;-82
2022/04/30 07:51:42;;;;;;;18.00;7.10;;;10.40;99.90;;;;;;4988320;28;20616;-82
2022/04/30 07:54:09;;;;;;;23.52;6.95;;;10.90;99.90;;;;;;4968763;28;20050;-82
2022/04/30 07:56:35;;;;;;;17.10;6.70;;;11.00;99.90;;;;;;5012227;28;20878;-79
2022/04/30 07:59:01;;;;;;;15.00;6.70;;;10.70;99.90;;;;;;4984330;28;20128;-78
2022/04/30 08:01:27;;;;;;;13.70;6.90;;;10.70;99.90;;;;;;4967110;28;20193;-77
2022/04/30 08:03:52;;;;;;;17.15;6.70;;;10.80;99.90;;;;;;5007254;28;20473;-81
2022/04/30 08:06:18;;;;;;;18.77;6.90;;;11.10;99.90;;;;;;4993359;28;20123;-79
2022/04/30 08:08:44;;;;;;;16.25;6.32;;;10.80;99.90;;;;;;4982466;28;20096;-77
2022/04/30 08:11:10;;;;;;;14.68;6.32;;;11.00;99.90;;;;;;4986223;28;20057;-77
2022/04/30 08:13:36;;;;;;;12.20;6.30;;;11.10;99.90;;;;;;4992377;28;20405;-77
2022/04/30 08:16:02;;;;;;;18.58;5.95;;;11.10;99.90;;;;;;4959061;28;20488;-78
2022/04/30 08:18:27;;;;;;;10.13;5.55;;;11.00;99.90;;;;;;4978467;28;20050;-77
2022/04/30 08:20:54;;;;;;;12.10;5.78;;;11.10;99.90;;;;;;4986453;28;20050;-80
2022/04/30 08:23:20;;;;;;;7.93;5.50;;;11.30;99.90;;;;;;4985327;28;20504;-78
2022/04/30 08:25:45;;;;;;;14.68;5.90;;;11.20;99.90;;;;;;4991454;28;20057;-79
2022/04/30 08:28:11;;;;;;;13.65;5.72;;;11.30;99.90;;;;;;4977087;28;20377;-80
2022/04/30 08:30:37;;;;;;;9.23;5.55;;;11.70;99.90;;;;;;4985090;28;20046;-79
2022/04/30 08:33:03;;;;;;;15.07;6.15;;;11.60;99.90;;;;;;4969811;28;20137;-80
2022/04/30 08:35:32;;;;;;;29.85;5.78;;;11.80;99.90;;;;;;4989213;28;20038;-76
2022/04/30 08:37:57;;;;;;;16.15;6.18;;;12.30;99.90;;;;;;4986265;28;20052;-78
2022/04/30 08:40:23;;;;;;;10.23;5.57;;;12.60;99.90;;;;;;4986948;28;20034;-79
2022/04/30 08:42:49;;;;;;;7.97;5.57;;;12.50;99.90;;;;;;4982918;28;20416;-77
2022/04/30 08:45:15;;;;;;;14.55;6.25;;;12.30;99.90;;;;;;4990165;28;20140;-78
2022/04/30 08:47:45;;;;;;;13.10;5.95;;;12.50;99.90;;;;;;4986204;28;20034;-77
2022/04/30 08:50:15;;;;;;;10.98;5.53;;;12.50;99.90;;;;;;4970718;28;20488;-78
2022/04/30 08:52:41;;;;;;;30.00;4.95;;;12.50;99.90;;;;;;4987783;28;20034;-76
2022/04/30 08:55:08;;;;;;;46.13;6.15;;;12.90;99.90;;;;;;4985099;28;20076;-78
2022/04/30 08:57:34;;;;;;;16.48;4.28;;;13.20;99.90;;;;;;4987413;28;20441;-79
2022/04/30 09:00:00;;;;;;;14.82;4.18;;;13.60;99.90;;;;;;4970686;28;20401;-79
2022/04/30 09:02:29;;;;;;;14.57;3.90;;;14.00;99.90;;;;;;4990011;28;21532;-78
2022/04/30 09:04:55;;;;;;;14.20;5.60;;;14.30;99.90;;;;;;4978781;28;20070;-79
2022/04/30 09:07:23;;;;;;;8.75;5.28;;;13.90;99.90;;;;;;4979871;28;20088;-79
2022/04/30 09:10:00;;;;;;;12.18;5.30;;;13.90;99.90;;;;;;4976286;28;20106;-80
2022/04/30 09:12:27;;;;;;;13.50;5.28;;;13.90;99.90;;;;;;4990146;28;20116;-79
2022/04/30 09:14:54;;;;;;;10.70;4.85;;;13.80;99.90;;;;;;4987283;28;20042;-78
2022/04/30 09:17:22;;;;;;;8.63;4.50;;;13.60;99.90;;;;;;4982786;28;20100;-77
2022/04/30 09:19:54;;;;;;;7.13;4.55;;;13.30;99.90;;;;;;4970017;28;20042;-79
2022/04/30 09:22:33;;;;;;;9.35;4.75;;;13.40;99.90;;;;;;4990360;28;20049;-80
2022/04/30 09:25:01;;;;;;;14.07;5.05;;;13.20;99.90;;;;;;4979238;28;20064;-78
2022/04/30 09:27:27;;;;;;;7.72;4.68;;;13.50;99.90;;;;;;4974092;28;20056;-81
2022/04/30 09:29:53;;;;;;;9.27;5.07;;;13.30;99.90;;;;;;4997024;28;20046;-83
2022/04/30 09:32:22;;;;;;;7.82;4.63;;;13.20;99.90;;;;;;4967355;28;20065;-81
2022/04/30 09:37:42;;;;;;;12.85;5.43;;;13.20;99.90;;;;;;4974005;28;20564;-81
2022/04/30 09:40:14;;;;;;;8.05;4.53;;;13.10;99.90;;;;;;4999520;28;20096;-80
2022/04/30 09:42:41;;;;;;;6.38;4.57;;;13.00;99.90;;;;;;4993862;28;20051;-78
2022/04/30 09:45:07;;;;;;;8.77;4.55;;;12.80;99.90;;;;;;4990095;28;20046;-78
2022/04/30 09:47:34;;;;;;;11.95;4.85;;;12.80;99.90;;;;;;4987700;28;20645;-78
2022/04/30 09:55:33;;;;;;;9.07;4.87;;;12.60;99.90;;;;;;4992033;28;20100;-78
2022/04/30 09:58:03;;;;;;;7.13;4.95;;;12.60;99.90;;;;;;4992928;28;20152;-79
2022/04/30 10:00:33;;;;;;;12.00;4.93;;;12.40;99.90;;;;;;5007408;28;20397;-78
2022/04/30 10:03:02;;;;;;;10.93;4.97;;;12.20;99.90;;;;;;4971101;28;20058;-79
2022/04/30 10:05:32;;;;;;;7.20;4.97;;;12.00;99.90;;;;;;4980089;28;20054;-81
2022/04/30 10:07:59;;;;;;;16.75;5.35;;;11.70;99.90;;;;;;4970771;28;20058;-80
2022/04/30 10:10:36;;;;;;;5.78;4.10;;;11.70;99.90;;;;;;4970507;28;20034;-82
2022/04/30 10:13:33;;;;;;;9.05;3.97;;;11.70;99.90;;;;;;4947686;28;20051;-76
2022/04/30 10:16:01;;;;;;;6.32;3.55;;;11.70;99.90;;;;;;4982403;28;20041;-79
2022/04/30 10:18:34;;;;;;;6.22;3.40;;;11.70;99.90;;;;;;4974173;28;20038;-79
2022/04/30 10:21:01;;;;;;;9.10;3.80;;;11.70;99.90;;;;;;4957078;28;20414;-78
2022/04/30 10:23:27;;;;;;;7.60;3.83;;;11.60;99.90;;;;;;4973603;28;20125;-80
2022/04/30 10:25:54;;;;;;;9.63;3.80;;;11.70;99.90;;;;;;4971117;28;20133;-79
2022/04/30 10:28:24;;;;;;;7.40;3.83;;;11.70;99.90;;;;;;4955812;28;20378;-81
2022/04/30 10:31:03;;;;;;;4.70;3.78;;;11.80;99.90;;;;;;4957532;28;20129;-81
2022/04/30 10:33:30;;;;;;;10.40;4.30;;;11.80;99.90;;;;;;4993515;28;20097;-80
2022/04/30 10:36:11;;;;;;;9.30;3.47;;;11.70;99.90;;;;;;4972283;28;20521;-80
2022/04/30 10:38:37;;;;;;;6.88;3.95;;;11.60;99.90;;;;;;4954277;28;20137;-78
2022/04/30 10:41:08;;;;;;;6.82;4.20;;;11.40;99.90;;;;;;4971492;28;20043;-80
2022/04/30 10:43:38;;;;;;;9.30;4.30;;;11.40;99.90;;;;;;4981419;28;20042;-82
2022/04/30 10:46:16;;;;;;;6.03;3.92;;;11.40;99.90;;;;;;4952631;28;20113;-78
2022/04/30 10:48:45;;;;;;;15.10;4.40;;;11.40;99.90;;;;;;4946094;28;20034;-81
2022/04/30 10:51:12;;;;;;;8.25;4.25;;;11.40;99.90;;;;;;4943867;28;20461;-79
2022/04/30 10:53:46;;;;;;;7.90;4.25;;;11.30;99.90;;;;;;4958996;28;20074;-78
2022/04/30 10:56:13;;;;;;;9.13;4.32;;;11.30;99.90;;;;;;4976035;28;20045;-79
2022/04/30 10:58:41;;;;;;;8.15;3.95;;;11.20;99.90;;;;;;4962693;28;20057;-79
2022/04/30 11:01:19;;;;;;;9.80;3.95;;;11.20;99.90;;;;;;4968350;28;20161;-79
2022/04/30 11:03:49;;;;;;;14.18;5.28;;;11.10;99.90;;;;;;4974092;28;20103;-77
2022/04/30 11:06:27;;;;;;;13.57;4.88;;;11.00;99.90;;;;;;4959411;28;20055;-79
2022/04/30 11:09:01;;;;;;;11.00;5.15;;;10.90;99.90;;;;;;4971947;28;20038;-79
2022/04/30 11:11:27;;;;;;;14.35;5.40;;;10.90;99.90;;;;;;4973938;28;20042;-81
2022/04/30 11:14:05;;;;;;;11.18;5.53;;;10.80;99.90;;;;;;4954544;28;20081;-79
2022/04/30 11:16:35;;;;;;;10.63;5.90;;;10.90;99.90;;;;;;4970457;28;20042;-78
2022/04/30 11:19:10;;;;;;;13.25;6.05;;;10.80;99.90;;;;;;4955745;28;20493;-81
2022/04/30 11:21:38;;;;;;;10.23;5.10;;;10.80;99.90;;;;;;4977477;28;20051;-80
2022/04/30 11:24:05;;;;;;;13.07;5.63;;;11.00;99.90;;;;;;5002630;28;20106;-79
2022/04/30 11:26:37;;;;;;;12.85;5.82;;;11.00;99.90;;;;;;4942953;28;20053;-79
2022/04/30 11:29:11;;;;;;;8.65;5.55;;;11.00;99.90;;;;;;4951293;28;20494;-80
2022/04/30 11:31:37;;;;;;;11.30;6.05;;;11.20;99.90;;;;;;4962135;28;20050;-80
2022/04/30 11:34:24;;;;;;;10.95;6.18;;;11.30;99.90;;;;;;4962180;28;20169;-80
2022/04/30 11:36:55;;;;;;;12.50;5.82;;;11.40;99.90;;;;;;5000655;28;20046;-78
2022/04/30 11:39:21;;;;;;;8.68;5.35;;;11.30;99.90;;;;;;4962739;28;20350;-77
2022/04/30 11:41:49;;;;;;;10.00;5.50;;;11.40;99.90;;;;;;5003437;28;20771;-79
2022/04/30 11:44:16;;;;;;;7.35;5.68;;;11.30;99.90;;;;;;4972511;28;20073;-79
2022/04/30 11:46:52;;;;;;;8.90;5.35;;;11.60;99.90;;;;;;4971874;28;20061;-78
2022/04/30 11:49:23;;;;;;;9.70;5.75;;;11.50;99.90;;;;;;4980004;28;20516;-80
2022/04/30 11:51:50;;;;;;;11.55;5.50;;;11.60;99.90;;;;;;4946664;28;20046;-80
2022/04/30 11:54:19;;;;;;;11.27;5.60;;;11.80;99.90;;;;;;4959133;28;20051;-80
2022/04/30 11:56:46;;;;;;;9.27;4.97;;;11.90;99.90;;;;;;4944412;28;20046;-79
2022/04/30 11:59:13;;;;;;;9.52;4.50;;;12.10;99.90;;;;;;4956111;28;20050;-81
2022/04/30 12:01:41;;;;;;;14.23;5.30;;;12.30;99.90;;;;;;4947482;28;20485;-82
2022/04/30 12:04:11;;;;;;;9.60;4.75;;;12.50;99.90;;;;;;4983295;28;20042;-80
2022/04/30 12:06:38;;;;;;;14.75;4.90;;;12.60;99.90;;;;;;4982032;28;20073;-80
2022/04/30 12:09:20;;;;;;;14.02;4.10;;;12.70;99.90;;;;;;4970531;28;20048;-79
2022/04/30 12:11:50;;;;;;;17.52;4.68;;;12.60;99.90;;;;;;4968432;28;20397;-79
2022/04/30 12:14:20;;;;;;;8.40;4.15;;;12.70;99.90;;;;;;4961437;28;20321;-82
2022/04/30 12:16:47;;;;;;;11.27;4.03;;;13.00;99.90;;;;;;4969805;28;20390;-83
2022/04/30 12:25:18;;;;;;;9.05;3.78;;;13.60;99.90;;;;;;4983004;28;20052;-78
2022/04/30 12:27:56;;;;;;;8.60;3.65;;;13.50;99.90;;;;;;4970004;28;20087;-79
2022/04/30 12:30:23;;;;;;;11.45;4.85;;;13.40;99.90;;;;;;4997372;28;20046;-78
2022/04/30 12:32:49;;;;;;;9.63;4.57;;;12.90;99.90;;;;;;4985383;28;20393;-78
2022/04/30 12:35:22;;;;;;;10.07;4.65;;;12.80;99.90;;;;;;4967614;28;20065;-78
2022/04/30 12:37:48;;;;;;;10.75;4.75;;;12.40;99.90;;;;;;4987289;28;20050;-79
2022/04/30 12:40:14;;;;;;;7.68;4.90;;;12.20;99.90;;;;;;4965730;28;20037;-78
2022/04/30 12:42:41;;;;;;;9.98;4.75;;;12.00;99.90;;;;;;4987203;28;20061;-79
2022/04/30 12:45:08;;;;;;;9.98;5.00;;;11.80;99.90;;;;;;4969393;28;20132;-79
2022/04/30 12:47:33;;;;;;;8.98;4.47;;;11.70;99.90;;;;;;4968049;28;20041;-78
2022/04/30 12:49:59;;;;;;;7.90;4.65;;;11.50;99.90;;;;;;4987538;28;20146;-78
2022/04/30 12:52:25;;;;;;;8.82;4.80;;;11.40;99.90;;;;;;4976985;28;20068;-78
2022/04/30 12:54:51;;;;;;;9.07;4.68;;;11.30;99.90;;;;;;4975407;28;20142;-78
2022/04/30 12:57:19;;;;;;;14.20;5.05;;;11.40;99.90;;;;;;4983629;28;20492;-77
2022/04/30 12:59:45;;;;;;;11.93;4.97;;;11.30;99.90;;;;;;4995267;28;20045;-78
2022/04/30 13:02:11;;;;;;;10.18;5.50;;;11.40;99.90;;;;;;4978201;28;20054;-79
2022/04/30 13:04:36;;;;;;;7.65;5.30;;;11.30;99.90;;;;;;4981938;28;20147;-78
2022/04/30 13:07:02;;;;;;;8.25;5.10;;;11.20;99.90;;;;;;4967393;28;20164;-78
2022/04/30 13:14:58;;;;;;;7.90;4.72;;;11.10;99.90;;;;;;4979329;28;20046;-78
2022/04/30 13:17:24;;;;;;;11.20;4.82;;;11.20;99.90;;;;;;4986427;28;20037;-77
2022/04/30 13:19:51;;;;;;;9.85;4.75;;;11.10;99.90;;;;;;4980225;28;20053;-78
2022/04/30 13:22:16;;;;;;;5.80;3.90;;;11.20;99.90;;;;;;4965509;28;20171;-78
2022/04/30 13:24:45;;;;;;;12.82;4.65;;;11.10;99.90;;;;;;4984203;28;20046;-77
2022/04/30 13:27:10;;;;;;;6.88;3.80;;;11.10;99.90;;;;;;4971542;28;20122;-78
2022/04/30 13:29:36;;;;;;;6.90;3.90;;;11.20;99.90;;;;;;4967631;28;20155;-77